sensor_id;sensor_type;location;lat;lon;timestamp;P1;durP1;ratioP1;P2;durP2;ratioP2
35418;SDS011;21525;41.240;16.500;2022-09-09T00:00:18;18.48;;;7.38;;
35418;SDS011;21525;41.240;16.500;2022-09-09T00:02:46;18.60;;;6.55;;
35418;SDS011;21525;41.240;16.500;2022-09-09T00:05:23;17.23;;;6.90;;
35418;SDS011;21525;41.240;16.500;2022-09-09T00:08:07;15.05;;;6.80;;
35418;SDS011;21525;41.240;16.500;2022-09-09T00:10:42;15.13;;;6.45;;
35418;SDS011;21525;41.240;16.500;2022-09-09T00:21:32;15.32;;;6.57;;
35418;SDS011;21525;41.240;16.500;2022-09-09T00:24:04;20.30;;;7.07;;
35418;SDS011;21525;41.240;16.500;2022-09-09T00:26:47;17.08;;;7.00;;
35418;SDS011;21525;41.240;16.500;2022-09-09T00:32:13;17.13;;;7.93;;
35418;SDS011;21525;41.240;16.500;2022-09-09T00:34:55;14.75;;;6.13;;
35418;SDS011;21525;41.240;16.500;2022-09-09T00:37:26;15.82;;;6.50;;
35418;SDS011;21525;41.240;16.500;2022-09-09T00:39:54;15.23;;;7.10;;
35418;SDS011;21525;41.240;16.500;2022-09-09T00:42:23;20.35;;;7.03;;
35418;SDS011;21525;41.240;16.500;2022-09-09T00:47:37;14.75;;;6.78;;
35418;SDS011;21525;41.240;16.500;2022-09-09T00:56:05;16.45;;;7.30;;
35418;SDS011;21525;41.240;16.500;2022-09-09T00:58:38;13.85;;;6.85;;
35418;SDS011;21525;41.240;16.500;2022-09-09T01:01:07;15.82;;;7.07;;
35418;SDS011;21525;41.240;16.500;2022-09-09T01:03:38;14.52;;;7.00;;
35418;SDS011;21525;41.240;16.500;2022-09-09T01:06:19;17.08;;;7.10;;
35418;SDS011;21525;41.240;16.500;2022-09-09T01:09:04;14.75;;;6.60;;
35418;SDS011;21525;41.240;16.500;2022-09-09T01:14:10;16.95;;;7.25;;
35418;SDS011;21525;41.240;16.500;2022-09-09T01:16:58;14.80;;;6.65;;
35418;SDS011;21525;41.240;16.500;2022-09-09T01:19:38;17.23;;;7.53;;
35418;SDS011;21525;41.240;16.500;2022-09-09T01:25:13;15.93;;;7.18;;
35418;SDS011;21525;41.240;16.500;2022-09-09T01:28:08;15.75;;;7.40;;
35418;SDS011;21525;41.240;16.500;2022-09-09T01:30:40;15.60;;;7.22;;
35418;SDS011;21525;41.240;16.500;2022-09-09T01:33:13;14.35;;;6.75;;
35418;SDS011;21525;41.240;16.500;2022-09-09T01:38:39;18.50;;;7.43;;
35418;SDS011;21525;41.240;16.500;2022-09-09T01:41:05;16.20;;;7.78;;
35418;SDS011;21525;41.240;16.500;2022-09-09T01:43:45;16.77;;;7.43;;
35418;SDS011;21525;41.240;16.500;2022-09-09T01:46:10;12.40;;;7.45;;
35418;SDS011;21525;41.240;16.500;2022-09-09T01:48:39;15.50;;;7.60;;
35418;SDS011;21525;41.240;16.500;2022-09-09T01:51:09;16.10;;;7.75;;
35418;SDS011;21525;41.240;16.500;2022-09-09T01:53:39;16.60;;;7.38;;
35418;SDS011;21525;41.240;16.500;2022-09-09T01:56:11;16.05;;;7.38;;
35418;SDS011;21525;41.240;16.500;2022-09-09T01:59:11;17.08;;;8.25;;
35418;SDS011;21525;41.240;16.500;2022-09-09T02:02:02;16.55;;;9.40;;
35418;SDS011;21525;41.240;16.500;2022-09-09T02:04:36;17.80;;;9.85;;
35418;SDS011;21525;41.240;16.500;2022-09-09T02:10:17;25.38;;;16.77;;
35418;SDS011;21525;41.240;16.500;2022-09-09T02:12:59;25.60;;;16.73;;
35418;SDS011;21525;41.240;16.500;2022-09-09T02:18:35;24.95;;;14.02;;
35418;SDS011;21525;41.240;16.500;2022-09-09T02:21:31;17.48;;;11.65;;
35418;SDS011;21525;41.240;16.500;2022-09-09T02:26:31;26.38;;;9.77;;
35418;SDS011;21525;41.240;16.500;2022-09-09T02:29:05;17.80;;;9.30;;
35418;SDS011;21525;41.240;16.500;2022-09-09T02:31:35;24.33;;;10.05;;
35418;SDS011;21525;41.240;16.500;2022-09-09T02:34:06;18.42;;;8.13;;
35418;SDS011;21525;41.240;16.500;2022-09-09T02:36:36;20.55;;;8.38;;
35418;SDS011;21525;41.240;16.500;2022-09-09T02:39:06;18.75;;;7.00;;
35418;SDS011;21525;41.240;16.500;2022-09-09T02:41:35;17.75;;;6.90;;
35418;SDS011;21525;41.240;16.500;2022-09-09T02:44:14;23.95;;;9.23;;
35418;SDS011;21525;41.240;16.500;2022-09-09T02:52:13;21.52;;;11.23;;
35418;SDS011;21525;41.240;16.500;2022-09-09T02:54:44;20.73;;;9.82;;
35418;SDS011;21525;41.240;16.500;2022-09-09T02:57:16;26.85;;;20.08;;
35418;SDS011;21525;41.240;16.500;2022-09-09T02:59:53;21.65;;;12.05;;
35418;SDS011;21525;41.240;16.500;2022-09-09T03:02:23;21.50;;;8.82;;
35418;SDS011;21525;41.240;16.500;2022-09-09T03:04:57;19.10;;;7.93;;
35418;SDS011;21525;41.240;16.500;2022-09-09T03:07:23;15.80;;;6.90;;
35418;SDS011;21525;41.240;16.500;2022-09-09T03:09:51;21.30;;;7.63;;
35418;SDS011;21525;41.240;16.500;2022-09-09T03:12:22;19.30;;;7.35;;
35418;SDS011;21525;41.240;16.500;2022-09-09T03:14:47;13.15;;;7.63;;
35418;SDS011;21525;41.240;16.500;2022-09-09T03:17:13;21.05;;;9.80;;
35418;SDS011;21525;41.240;16.500;2022-09-09T03:19:46;21.63;;;7.97;;
35418;SDS011;21525;41.240;16.500;2022-09-09T03:22:15;16.55;;;6.47;;
35418;SDS011;21525;41.240;16.500;2022-09-09T03:24:43;27.05;;;7.75;;
35418;SDS011;21525;41.240;16.500;2022-09-09T03:27:08;20.52;;;7.38;;
35418;SDS011;21525;41.240;16.500;2022-09-09T03:29:36;25.17;;;12.00;;
35418;SDS011;21525;41.240;16.500;2022-09-09T03:32:06;22.42;;;7.95;;
35418;SDS011;21525;41.240;16.500;2022-09-09T03:34:32;22.65;;;7.20;;
35418;SDS011;21525;41.240;16.500;2022-09-09T03:36:58;15.68;;;6.63;;
35418;SDS011;21525;41.240;16.500;2022-09-09T03:39:24;18.55;;;7.13;;
35418;SDS011;21525;41.240;16.500;2022-09-09T03:41:50;17.17;;;7.18;;
35418;SDS011;21525;41.240;16.500;2022-09-09T03:44:17;16.50;;;6.63;;
35418;SDS011;21525;41.240;16.500;2022-09-09T03:46:43;23.23;;;7.20;;
35418;SDS011;21525;41.240;16.500;2022-09-09T03:49:09;19.60;;;6.85;;
35418;SDS011;21525;41.240;16.500;2022-09-09T03:51:35;22.40;;;6.00;;
35418;SDS011;21525;41.240;16.500;2022-09-09T03:54:02;21.83;;;5.93;;
35418;SDS011;21525;41.240;16.500;2022-09-09T03:56:31;22.30;;;7.07;;
35418;SDS011;21525;41.240;16.500;2022-09-09T03:58:58;21.50;;;6.22;;
35418;SDS011;21525;41.240;16.500;2022-09-09T04:01:24;21.02;;;6.05;;
35418;SDS011;21525;41.240;16.500;2022-09-09T04:03:50;24.13;;;6.97;;
35418;SDS011;21525;41.240;16.500;2022-09-09T04:06:16;17.05;;;5.95;;
35418;SDS011;21525;41.240;16.500;2022-09-09T04:08:45;32.00;;;7.38;;
35418;SDS011;21525;41.240;16.500;2022-09-09T04:11:14;25.90;;;6.93;;
35418;SDS011;21525;41.240;16.500;2022-09-09T04:13:41;23.00;;;6.17;;
35418;SDS011;21525;41.240;16.500;2022-09-09T04:16:11;30.13;;;7.13;;
35418;SDS011;21525;41.240;16.500;2022-09-09T04:18:39;31.13;;;7.65;;
35418;SDS011;21525;41.240;16.500;2022-09-09T04:21:06;27.20;;;7.68;;
35418;SDS011;21525;41.240;16.500;2022-09-09T04:23:34;31.02;;;7.13;;
35418;SDS011;21525;41.240;16.500;2022-09-09T04:26:02;36.53;;;7.72;;
35418;SDS011;21525;41.240;16.500;2022-09-09T04:28:31;37.20;;;8.18;;
35418;SDS011;21525;41.240;16.500;2022-09-09T04:33:55;34.35;;;7.25;;
35418;SDS011;21525;41.240;16.500;2022-09-09T04:36:22;27.95;;;7.22;;
35418;SDS011;21525;41.240;16.500;2022-09-09T04:41:16;36.80;;;8.10;;
35418;SDS011;21525;41.240;16.500;2022-09-09T04:43:44;31.02;;;7.47;;
35418;SDS011;21525;41.240;16.500;2022-09-09T04:46:11;28.27;;;6.57;;
35418;SDS011;21525;41.240;16.500;2022-09-09T04:48:37;32.20;;;7.55;;
35418;SDS011;21525;41.240;16.500;2022-09-09T04:51:06;35.72;;;6.43;;
35418;SDS011;21525;41.240;16.500;2022-09-09T04:53:38;29.83;;;7.45;;
35418;SDS011;21525;41.240;16.500;2022-09-09T04:56:06;32.72;;;7.70;;
35418;SDS011;21525;41.240;16.500;2022-09-09T04:58:44;28.90;;;8.45;;
35418;SDS011;21525;41.240;16.500;2022-09-09T05:01:12;31.52;;;7.65;;
35418;SDS011;21525;41.240;16.500;2022-09-09T05:03:42;23.48;;;7.20;;
35418;SDS011;21525;41.240;16.500;2022-09-09T05:06:13;23.90;;;8.38;;
35418;SDS011;21525;41.240;16.500;2022-09-09T05:08:41;28.25;;;8.43;;
35418;SDS011;21525;41.240;16.500;2022-09-09T05:11:22;22.85;;;7.80;;
35418;SDS011;21525;41.240;16.500;2022-09-09T05:13:52;30.65;;;10.43;;
35418;SDS011;21525;41.240;16.500;2022-09-09T05:16:19;25.67;;;7.55;;
35418;SDS011;21525;41.240;16.500;2022-09-09T05:18:46;28.75;;;7.32;;
35418;SDS011;21525;41.240;16.500;2022-09-09T05:21:13;25.67;;;7.43;;
35418;SDS011;21525;41.240;16.500;2022-09-09T05:23:40;29.50;;;7.90;;
35418;SDS011;21525;41.240;16.500;2022-09-09T05:26:08;24.23;;;6.93;;
35418;SDS011;21525;41.240;16.500;2022-09-09T05:28:37;25.08;;;9.57;;
35418;SDS011;21525;41.240;16.500;2022-09-09T05:31:04;26.27;;;8.30;;
35418;SDS011;21525;41.240;16.500;2022-09-09T05:33:34;30.95;;;9.23;;
35418;SDS011;21525;41.240;16.500;2022-09-09T05:36:05;27.83;;;7.85;;
35418;SDS011;21525;41.240;16.500;2022-09-09T05:38:53;34.30;;;7.97;;
35418;SDS011;21525;41.240;16.500;2022-09-09T05:41:20;29.63;;;7.25;;
35418;SDS011;21525;41.240;16.500;2022-09-09T05:43:46;30.38;;;7.63;;
35418;SDS011;21525;41.240;16.500;2022-09-09T05:46:14;31.80;;;7.90;;
35418;SDS011;21525;41.240;16.500;2022-09-09T05:48:46;37.38;;;8.23;;
35418;SDS011;21525;41.240;16.500;2022-09-09T05:51:15;31.02;;;7.47;;
35418;SDS011;21525;41.240;16.500;2022-09-09T05:53:43;44.45;;;8.70;;
35418;SDS011;21525;41.240;16.500;2022-09-09T05:56:12;36.17;;;8.65;;
35418;SDS011;21525;41.240;16.500;2022-09-09T05:58:41;32.92;;;8.02;;
35418;SDS011;21525;41.240;16.500;2022-09-09T06:01:13;33.78;;;7.63;;
35418;SDS011;21525;41.240;16.500;2022-09-09T06:03:45;33.30;;;8.23;;
35418;SDS011;21525;41.240;16.500;2022-09-09T06:06:15;30.13;;;8.38;;
35418;SDS011;21525;41.240;16.500;2022-09-09T06:08:43;29.02;;;6.68;;
35418;SDS011;21525;41.240;16.500;2022-09-09T06:11:18;26.88;;;7.68;;
35418;SDS011;21525;41.240;16.500;2022-09-09T06:13:44;31.23;;;7.03;;
35418;SDS011;21525;41.240;16.500;2022-09-09T06:16:12;32.30;;;7.05;;
35418;SDS011;21525;41.240;16.500;2022-09-09T06:18:41;32.67;;;7.07;;
35418;SDS011;21525;41.240;16.500;2022-09-09T06:21:17;30.70;;;7.85;;
35418;SDS011;21525;41.240;16.500;2022-09-09T06:23:47;29.42;;;7.68;;
35418;SDS011;21525;41.240;16.500;2022-09-09T06:26:15;22.88;;;7.07;;
35418;SDS011;21525;41.240;16.500;2022-09-09T06:28:43;36.90;;;8.20;;
35418;SDS011;21525;41.240;16.500;2022-09-09T06:31:12;29.42;;;7.53;;
35418;SDS011;21525;41.240;16.500;2022-09-09T06:33:40;34.45;;;7.70;;
35418;SDS011;21525;41.240;16.500;2022-09-09T06:36:11;33.83;;;8.00;;
35418;SDS011;21525;41.240;16.500;2022-09-09T06:38:41;20.67;;;6.57;;
35418;SDS011;21525;41.240;16.500;2022-09-09T06:43:36;21.27;;;6.35;;
35418;SDS011;21525;41.240;16.500;2022-09-09T06:46:10;26.70;;;5.93;;
35418;SDS011;21525;41.240;16.500;2022-09-09T06:48:41;27.63;;;7.20;;
35418;SDS011;21525;41.240;16.500;2022-09-09T06:51:12;28.50;;;6.47;;
35418;SDS011;21525;41.240;16.500;2022-09-09T06:53:41;32.58;;;7.50;;
35418;SDS011;21525;41.240;16.500;2022-09-09T06:58:35;27.48;;;7.65;;
35418;SDS011;21525;41.240;16.500;2022-09-09T07:01:13;28.45;;;6.35;;
35418;SDS011;21525;41.240;16.500;2022-09-09T07:03:41;26.48;;;7.30;;
35418;SDS011;21525;41.240;16.500;2022-09-09T07:06:14;25.50;;;6.80;;
35418;SDS011;21525;41.240;16.500;2022-09-09T07:08:54;23.60;;;6.00;;
35418;SDS011;21525;41.240;16.500;2022-09-09T07:11:25;20.85;;;5.50;;
35418;SDS011;21525;41.240;16.500;2022-09-09T07:13:52;23.15;;;5.57;;
35418;SDS011;21525;41.240;16.500;2022-09-09T07:16:20;20.75;;;6.35;;
35418;SDS011;21525;41.240;16.500;2022-09-09T07:18:48;25.48;;;6.07;;
35418;SDS011;21525;41.240;16.500;2022-09-09T07:21:16;28.35;;;6.18;;
35418;SDS011;21525;41.240;16.500;2022-09-09T07:23:43;29.92;;;6.07;;
35418;SDS011;21525;41.240;16.500;2022-09-09T07:26:10;25.23;;;5.28;;
35418;SDS011;21525;41.240;16.500;2022-09-09T07:28:37;29.23;;;6.72;;
35418;SDS011;21525;41.240;16.500;2022-09-09T07:31:04;30.90;;;9.68;;
35418;SDS011;21525;41.240;16.500;2022-09-09T07:33:32;28.52;;;8.27;;
35418;SDS011;21525;41.240;16.500;2022-09-09T07:36:04;25.50;;;6.55;;
35418;SDS011;21525;41.240;16.500;2022-09-09T07:38:43;20.13;;;5.32;;
35418;SDS011;21525;41.240;16.500;2022-09-09T07:41:13;24.23;;;5.65;;
35418;SDS011;21525;41.240;16.500;2022-09-09T07:43:44;20.60;;;6.15;;
35418;SDS011;21525;41.240;16.500;2022-09-09T07:48:38;32.35;;;6.68;;
35418;SDS011;21525;41.240;16.500;2022-09-09T07:51:16;20.90;;;5.88;;
35418;SDS011;21525;41.240;16.500;2022-09-09T07:53:44;26.45;;;5.90;;
35418;SDS011;21525;41.240;16.500;2022-09-09T07:56:12;26.70;;;5.80;;
35418;SDS011;21525;41.240;16.500;2022-09-09T07:58:44;26.85;;;6.93;;
35418;SDS011;21525;41.240;16.500;2022-09-09T08:01:12;31.02;;;6.70;;
35418;SDS011;21525;41.240;16.500;2022-09-09T08:03:42;24.42;;;5.72;;
35418;SDS011;21525;41.240;16.500;2022-09-09T08:06:10;27.40;;;7.17;;
35418;SDS011;21525;41.240;16.500;2022-09-09T08:08:37;30.58;;;6.72;;
35418;SDS011;21525;41.240;16.500;2022-09-09T08:11:06;25.85;;;6.43;;
35418;SDS011;21525;41.240;16.500;2022-09-09T08:13:34;32.67;;;8.43;;
35418;SDS011;21525;41.240;16.500;2022-09-09T08:16:08;36.28;;;7.28;;
35418;SDS011;21525;41.240;16.500;2022-09-09T08:18:37;25.67;;;7.68;;
35418;SDS011;21525;41.240;16.500;2022-09-09T08:21:17;24.23;;;6.57;;
35418;SDS011;21525;41.240;16.500;2022-09-09T08:23:45;28.70;;;6.38;;
35418;SDS011;21525;41.240;16.500;2022-09-09T08:28:47;30.02;;;7.00;;
35418;SDS011;21525;41.240;16.500;2022-09-09T08:33:43;26.67;;;6.30;;
35418;SDS011;21525;41.240;16.500;2022-09-09T08:36:12;23.90;;;6.78;;
35418;SDS011;21525;41.240;16.500;2022-09-09T08:38:41;19.95;;;5.78;;
35418;SDS011;21525;41.240;16.500;2022-09-09T08:43:34;29.00;;;7.22;;
35418;SDS011;21525;41.240;16.500;2022-09-09T08:46:09;27.92;;;6.75;;
35418;SDS011;21525;41.240;16.500;2022-09-09T08:49:02;27.05;;;7.43;;
35418;SDS011;21525;41.240;16.500;2022-09-09T08:51:39;17.55;;;6.65;;
35418;SDS011;21525;41.240;16.500;2022-09-09T08:54:05;26.05;;;6.05;;
35418;SDS011;21525;41.240;16.500;2022-09-09T08:56:32;25.52;;;5.75;;
35418;SDS011;21525;41.240;16.500;2022-09-09T08:59:01;22.17;;;7.47;;
35418;SDS011;21525;41.240;16.500;2022-09-09T09:10:50;28.15;;;6.78;;
35418;SDS011;21525;41.240;16.500;2022-09-09T09:13:27;22.88;;;7.00;;
35418;SDS011;21525;41.240;16.500;2022-09-09T09:16:33;25.20;;;5.97;;
35418;SDS011;21525;41.240;16.500;2022-09-09T09:19:08;28.55;;;6.80;;
35418;SDS011;21525;41.240;16.500;2022-09-09T09:21:40;27.92;;;5.60;;
35418;SDS011;21525;41.240;16.500;2022-09-09T09:24:16;27.92;;;5.90;;
35418;SDS011;21525;41.240;16.500;2022-09-09T09:26:46;24.67;;;6.40;;
35418;SDS011;21525;41.240;16.500;2022-09-09T09:29:14;28.52;;;7.03;;
35418;SDS011;21525;41.240;16.500;2022-09-09T09:31:45;26.35;;;5.82;;
35418;SDS011;21525;41.240;16.500;2022-09-09T09:34:17;30.55;;;6.07;;
35418;SDS011;21525;41.240;16.500;2022-09-09T09:36:45;19.77;;;5.87;;
35418;SDS011;21525;41.240;16.500;2022-09-09T09:39:28;21.20;;;6.72;;
35418;SDS011;21525;41.240;16.500;2022-09-09T09:41:58;30.52;;;6.93;;
35418;SDS011;21525;41.240;16.500;2022-09-09T09:44:36;25.35;;;5.72;;
35418;SDS011;21525;41.240;16.500;2022-09-09T09:49:37;23.00;;;6.45;;
35418;SDS011;21525;41.240;16.500;2022-09-09T09:52:04;24.98;;;6.38;;
35418;SDS011;21525;41.240;16.500;2022-09-09T09:54:38;21.15;;;5.50;;
35418;SDS011;21525;41.240;16.500;2022-09-09T09:57:11;23.02;;;6.47;;
35418;SDS011;21525;41.240;16.500;2022-09-09T09:59:42;19.63;;;6.55;;
35418;SDS011;21525;41.240;16.500;2022-09-09T10:02:23;24.77;;;6.43;;
35418;SDS011;21525;41.240;16.500;2022-09-09T10:05:08;23.30;;;6.57;;
35418;SDS011;21525;41.240;16.500;2022-09-09T10:35:14;23.65;;;6.28;;
35418;SDS011;21525;41.240;16.500;2022-09-09T10:54:57;21.67;;;6.03;;
35418;SDS011;21525;41.240;16.500;2022-09-09T11:00:06;22.05;;;6.22;;
35418;SDS011;21525;41.240;16.500;2022-09-09T11:02:45;19.92;;;5.80;;
35418;SDS011;21525;41.240;16.500;2022-09-09T11:05:20;24.42;;;5.95;;
35418;SDS011;21525;41.240;16.500;2022-09-09T11:07:58;21.38;;;5.82;;
35418;SDS011;21525;41.240;16.500;2022-09-09T11:10:37;21.73;;;6.60;;
35418;SDS011;21525;41.240;16.500;2022-09-09T11:13:31;16.48;;;5.07;;
35418;SDS011;21525;41.240;16.500;2022-09-09T11:19:56;19.25;;;5.95;;
35418;SDS011;21525;41.240;16.500;2022-09-09T11:22:13;24.20;;;6.05;;
35418;SDS011;21525;41.240;16.500;2022-09-09T11:24:57;22.83;;;6.30;;
35418;SDS011;21525;41.240;16.500;2022-09-09T11:35:44;25.20;;;5.97;;
35418;SDS011;21525;41.240;16.500;2022-09-09T11:41:04;20.33;;;6.40;;
35418;SDS011;21525;41.240;16.500;2022-09-09T11:43:42;21.80;;;7.22;;
35418;SDS011;21525;41.240;16.500;2022-09-09T11:46:14;26.25;;;6.32;;
35418;SDS011;21525;41.240;16.500;2022-09-09T11:48:44;22.35;;;5.72;;
35418;SDS011;21525;41.240;16.500;2022-09-09T11:51:12;21.95;;;5.93;;
35418;SDS011;21525;41.240;16.500;2022-09-09T11:53:51;20.50;;;6.05;;
35418;SDS011;21525;41.240;16.500;2022-09-09T11:59:34;27.20;;;6.75;;
35418;SDS011;21525;41.240;16.500;2022-09-09T12:01:55;25.55;;;6.15;;
35418;SDS011;21525;41.240;16.500;2022-09-09T12:04:28;21.33;;;5.57;;
35418;SDS011;21525;41.240;16.500;2022-09-09T12:09:32;20.85;;;6.07;;
35418;SDS011;21525;41.240;16.500;2022-09-09T12:12:43;17.58;;;6.10;;
35418;SDS011;21525;41.240;16.500;2022-09-09T12:14:59;18.42;;;6.20;;
35418;SDS011;21525;41.240;16.500;2022-09-09T12:17:28;20.67;;;6.47;;
35418;SDS011;21525;41.240;16.500;2022-09-09T12:31:21;19.25;;;6.03;;
35418;SDS011;21525;41.240;16.500;2022-09-09T12:33:43;20.17;;;6.10;;
35418;SDS011;21525;41.240;16.500;2022-09-09T12:36:16;29.58;;;7.43;;
35418;SDS011;21525;41.240;16.500;2022-09-09T12:39:17;27.77;;;6.82;;
35418;SDS011;21525;41.240;16.500;2022-09-09T12:41:51;26.80;;;6.25;;
35418;SDS011;21525;41.240;16.500;2022-09-09T12:44:25;21.30;;;6.45;;
35418;SDS011;21525;41.240;16.500;2022-09-09T12:46:55;20.15;;;6.38;;
35418;SDS011;21525;41.240;16.500;2022-09-09T12:52:04;23.23;;;6.35;;
35418;SDS011;21525;41.240;16.500;2022-09-09T12:54:32;25.13;;;5.88;;
35418;SDS011;21525;41.240;16.500;2022-09-09T12:57:00;20.80;;;6.28;;
35418;SDS011;21525;41.240;16.500;2022-09-09T12:59:34;21.30;;;5.63;;
35418;SDS011;21525;41.240;16.500;2022-09-09T13:02:11;23.02;;;5.80;;
35418;SDS011;21525;41.240;16.500;2022-09-09T13:04:43;28.85;;;6.47;;
35418;SDS011;21525;41.240;16.500;2022-09-09T13:07:12;25.23;;;6.60;;
35418;SDS011;21525;41.240;16.500;2022-09-09T13:09:39;28.50;;;5.97;;
35418;SDS011;21525;41.240;16.500;2022-09-09T13:12:06;21.25;;;5.75;;
35418;SDS011;21525;41.240;16.500;2022-09-09T13:14:43;20.65;;;5.80;;
35418;SDS011;21525;41.240;16.500;2022-09-09T13:17:17;23.70;;;6.88;;
35418;SDS011;21525;41.240;16.500;2022-09-09T13:19:48;26.30;;;6.57;;
35418;SDS011;21525;41.240;16.500;2022-09-09T13:22:37;24.98;;;6.75;;
35418;SDS011;21525;41.240;16.500;2022-09-09T13:27:37;25.52;;;6.35;;
35418;SDS011;21525;41.240;16.500;2022-09-09T13:30:19;22.45;;;5.88;;
35418;SDS011;21525;41.240;16.500;2022-09-09T13:35:35;18.10;;;5.88;;
35418;SDS011;21525;41.240;16.500;2022-09-09T13:38:15;23.63;;;6.28;;
35418;SDS011;21525;41.240;16.500;2022-09-09T13:43:47;24.38;;;6.28;;
35418;SDS011;21525;41.240;16.500;2022-09-09T13:49:21;23.08;;;5.85;;
35418;SDS011;21525;41.240;16.500;2022-09-09T13:51:49;21.02;;;6.00;;
35418;SDS011;21525;41.240;16.500;2022-09-09T13:54:19;19.13;;;5.60;;
35418;SDS011;21525;41.240;16.500;2022-09-09T13:59:13;26.17;;;6.43;;
35418;SDS011;21525;41.240;16.500;2022-09-09T14:01:41;25.63;;;5.88;;
35418;SDS011;21525;41.240;16.500;2022-09-09T14:04:07;23.25;;;5.82;;
35418;SDS011;21525;41.240;16.500;2022-09-09T14:06:34;19.63;;;5.18;;
35418;SDS011;21525;41.240;16.500;2022-09-09T14:09:05;23.15;;;5.20;;
35418;SDS011;21525;41.240;16.500;2022-09-09T14:11:32;22.02;;;4.85;;
35418;SDS011;21525;41.240;16.500;2022-09-09T14:13:58;23.40;;;6.13;;
35418;SDS011;21525;41.240;16.500;2022-09-09T14:16:26;26.42;;;6.18;;
35418;SDS011;21525;41.240;16.500;2022-09-09T14:18:53;32.55;;;6.75;;
35418;SDS011;21525;41.240;16.500;2022-09-09T14:21:22;25.55;;;5.82;;
35418;SDS011;21525;41.240;16.500;2022-09-09T14:23:48;26.25;;;6.00;;
35418;SDS011;21525;41.240;16.500;2022-09-09T14:26:14;25.40;;;7.20;;
35418;SDS011;21525;41.240;16.500;2022-09-09T14:28:40;27.63;;;6.03;;
35418;SDS011;21525;41.240;16.500;2022-09-09T14:31:06;29.88;;;6.32;;
35418;SDS011;21525;41.240;16.500;2022-09-09T14:33:32;24.40;;;5.90;;
35418;SDS011;21525;41.240;16.500;2022-09-09T14:35:59;23.27;;;5.72;;
35418;SDS011;21525;41.240;16.500;2022-09-09T14:38:33;20.45;;;5.15;;
35418;SDS011;21525;41.240;16.500;2022-09-09T14:43:31;29.35;;;6.10;;
35418;SDS011;21525;41.240;16.500;2022-09-09T14:46:04;20.48;;;5.70;;
35418;SDS011;21525;41.240;16.500;2022-09-09T14:48:33;25.52;;;6.55;;
35418;SDS011;21525;41.240;16.500;2022-09-09T14:51:11;29.67;;;6.90;;
35418;SDS011;21525;41.240;16.500;2022-09-09T14:53:39;24.67;;;6.90;;
35418;SDS011;21525;41.240;16.500;2022-09-09T14:56:07;21.10;;;5.50;;
35418;SDS011;21525;41.240;16.500;2022-09-09T14:58:35;23.33;;;5.68;;
35418;SDS011;21525;41.240;16.500;2022-09-09T15:01:05;26.92;;;6.45;;
35418;SDS011;21525;41.240;16.500;2022-09-09T15:03:32;21.38;;;6.13;;
35418;SDS011;21525;41.240;16.500;2022-09-09T15:05:58;26.10;;;6.40;;
35418;SDS011;21525;41.240;16.500;2022-09-09T15:08:24;20.35;;;5.68;;
35418;SDS011;21525;41.240;16.500;2022-09-09T15:10:58;23.27;;;5.57;;
35418;SDS011;21525;41.240;16.500;2022-09-09T15:13:25;24.75;;;5.82;;
35418;SDS011;21525;41.240;16.500;2022-09-09T15:15:51;22.33;;;6.07;;
35418;SDS011;21525;41.240;16.500;2022-09-09T15:18:17;22.90;;;6.05;;
35418;SDS011;21525;41.240;16.500;2022-09-09T15:20:46;17.23;;;5.50;;
35418;SDS011;21525;41.240;16.500;2022-09-09T15:23:13;24.38;;;5.50;;
35418;SDS011;21525;41.240;16.500;2022-09-09T15:25:49;18.90;;;5.82;;
35418;SDS011;21525;41.240;16.500;2022-09-09T15:28:17;24.15;;;6.75;;
35418;SDS011;21525;41.240;16.500;2022-09-09T15:30:43;25.52;;;6.05;;
35418;SDS011;21525;41.240;16.500;2022-09-09T15:33:10;25.02;;;6.55;;
35418;SDS011;21525;41.240;16.500;2022-09-09T15:35:36;20.33;;;6.05;;
35418;SDS011;21525;41.240;16.500;2022-09-09T15:38:02;26.95;;;6.60;;
35418;SDS011;21525;41.240;16.500;2022-09-09T15:40:30;24.58;;;6.45;;
35418;SDS011;21525;41.240;16.500;2022-09-09T15:42:58;18.75;;;5.53;;
35418;SDS011;21525;41.240;16.500;2022-09-09T15:45:24;25.80;;;6.40;;
35418;SDS011;21525;41.240;16.500;2022-09-09T15:47:50;26.65;;;7.32;;
35418;SDS011;21525;41.240;16.500;2022-09-09T15:50:16;22.17;;;5.82;;
35418;SDS011;21525;41.240;16.500;2022-09-09T15:52:42;19.92;;;5.80;;
35418;SDS011;21525;41.240;16.500;2022-09-09T15:55:08;22.58;;;6.72;;
35418;SDS011;21525;41.240;16.500;2022-09-09T15:57:34;20.55;;;6.45;;
35418;SDS011;21525;41.240;16.500;2022-09-09T16:00:00;24.13;;;6.55;;
35418;SDS011;21525;41.240;16.500;2022-09-09T16:02:27;25.70;;;7.13;;
35418;SDS011;21525;41.240;16.500;2022-09-09T16:04:52;23.17;;;6.95;;
35418;SDS011;21525;41.240;16.500;2022-09-09T16:07:18;21.30;;;6.47;;
35418;SDS011;21525;41.240;16.500;2022-09-09T16:09:44;21.45;;;6.07;;
35418;SDS011;21525;41.240;16.500;2022-09-09T16:12:10;23.90;;;6.90;;
35418;SDS011;21525;41.240;16.500;2022-09-09T16:14:38;24.45;;;6.85;;
35418;SDS011;21525;41.240;16.500;2022-09-09T16:17:05;23.33;;;6.80;;
35418;SDS011;21525;41.240;16.500;2022-09-09T16:19:32;23.00;;;7.93;;
35418;SDS011;21525;41.240;16.500;2022-09-09T16:21:58;26.85;;;7.43;;
35418;SDS011;21525;41.240;16.500;2022-09-09T16:24:24;25.48;;;7.10;;
35418;SDS011;21525;41.240;16.500;2022-09-09T16:26:51;28.48;;;7.70;;
35418;SDS011;21525;41.240;16.500;2022-09-09T16:29:18;23.92;;;7.03;;
35418;SDS011;21525;41.240;16.500;2022-09-09T16:31:45;23.15;;;7.15;;
35418;SDS011;21525;41.240;16.500;2022-09-09T16:34:12;28.08;;;8.45;;
35418;SDS011;21525;41.240;16.500;2022-09-09T16:36:40;32.00;;;8.30;;
35418;SDS011;21525;41.240;16.500;2022-09-09T16:39:08;25.38;;;7.82;;
35418;SDS011;21525;41.240;16.500;2022-09-09T16:41:36;30.35;;;7.53;;
35418;SDS011;21525;41.240;16.500;2022-09-09T16:44:08;26.00;;;7.27;;
35418;SDS011;21525;41.240;16.500;2022-09-09T16:46:39;24.48;;;7.60;;
35418;SDS011;21525;41.240;16.500;2022-09-09T16:49:11;24.20;;;7.88;;
35418;SDS011;21525;41.240;16.500;2022-09-09T16:51:43;23.08;;;7.63;;
35418;SDS011;21525;41.240;16.500;2022-09-09T16:54:11;24.02;;;7.90;;
35418;SDS011;21525;41.240;16.500;2022-09-09T16:56:40;28.70;;;7.78;;
35418;SDS011;21525;41.240;16.500;2022-09-09T16:59:08;22.00;;;7.10;;
35418;SDS011;21525;41.240;16.500;2022-09-09T17:01:40;31.13;;;7.47;;
35418;SDS011;21525;41.240;16.500;2022-09-09T17:04:08;23.42;;;7.80;;
35418;SDS011;21525;41.240;16.500;2022-09-09T17:06:37;25.60;;;7.50;;
35418;SDS011;21525;41.240;16.500;2022-09-09T17:09:10;27.25;;;8.02;;
35418;SDS011;21525;41.240;16.500;2022-09-09T17:11:38;21.25;;;6.75;;
35418;SDS011;21525;41.240;16.500;2022-09-09T17:14:05;22.92;;;6.85;;
35418;SDS011;21525;41.240;16.500;2022-09-09T17:16:34;31.75;;;8.10;;
35418;SDS011;21525;41.240;16.500;2022-09-09T17:19:00;28.02;;;7.63;;
35418;SDS011;21525;41.240;16.500;2022-09-09T17:21:27;27.42;;;8.23;;
35418;SDS011;21525;41.240;16.500;2022-09-09T17:23:54;25.27;;;7.22;;
35418;SDS011;21525;41.240;16.500;2022-09-09T17:26:21;23.00;;;7.13;;
35418;SDS011;21525;41.240;16.500;2022-09-09T17:28:52;30.13;;;8.95;;
35418;SDS011;21525;41.240;16.500;2022-09-09T17:31:18;29.33;;;8.38;;
35418;SDS011;21525;41.240;16.500;2022-09-09T17:33:45;27.02;;;8.93;;